sensor_id;sensor_type;location;lat;lon;timestamp;P1;durP1;ratioP1;P2;durP2;ratioP2
60014;SDS011;45867;52.480;6.056;2022-09-01T00:01:00;5.90;;;2.45;;
60014;SDS011;45867;52.480;6.056;2022-09-01T00:03:27;6.78;;;2.50;;
60014;SDS011;45867;52.480;6.056;2022-09-01T00:05:53;7.45;;;2.60;;
60014;SDS011;45867;52.480;6.056;2022-09-01T00:08:21;9.05;;;2.70;;
60014;SDS011;45867;52.480;6.056;2022-09-01T00:10:47;6.88;;;2.30;;
60014;SDS011;45867;52.480;6.056;2022-09-01T00:13:15;12.57;;;2.60;;
60014;SDS011;45867;52.480;6.056;2022-09-01T00:15:41;9.05;;;2.60;;
60014;SDS011;45867;52.480;6.056;2022-09-01T00:18:07;11.77;;;2.53;;
60014;SDS011;45867;52.480;6.056;2022-09-01T00:20:32;3.80;;;2.38;;
60014;SDS011;45867;52.480;6.056;2022-09-01T00:22:58;6.80;;;2.58;;
60014;SDS011;45867;52.480;6.056;2022-09-01T00:25:27;5.10;;;2.38;;
60014;SDS011;45867;52.480;6.056;2022-09-01T00:27:53;5.63;;;2.53;;
60014;SDS011;45867;52.480;6.056;2022-09-01T00:30:20;14.23;;;2.67;;
60014;SDS011;45867;52.480;6.056;2022-09-01T00:32:45;5.18;;;2.72;;
60014;SDS011;45867;52.480;6.056;2022-09-01T00:35:12;9.82;;;2.63;;
60014;SDS011;45867;52.480;6.056;2022-09-01T00:37:41;7.13;;;2.97;;
60014;SDS011;45867;52.480;6.056;2022-09-01T00:40:07;7.85;;;2.65;;
60014;SDS011;45867;52.480;6.056;2022-09-01T00:42:36;5.00;;;2.75;;
60014;SDS011;45867;52.480;6.056;2022-09-01T00:45:04;5.22;;;2.72;;
60014;SDS011;45867;52.480;6.056;2022-09-01T00:47:29;12.77;;;2.83;;
60014;SDS011;45867;52.480;6.056;2022-09-01T00:49:55;3.67;;;2.50;;
60014;SDS011;45867;52.480;6.056;2022-09-01T00:52:28;10.52;;;3.05;;
60014;SDS011;45867;52.480;6.056;2022-09-01T00:54:56;8.00;;;2.85;;
60014;SDS011;45867;52.480;6.056;2022-09-01T00:57:22;5.03;;;2.80;;
60014;SDS011;45867;52.480;6.056;2022-09-01T00:59:52;8.98;;;2.90;;
60014;SDS011;45867;52.480;6.056;2022-09-01T01:02:20;6.78;;;2.78;;
60014;SDS011;45867;52.480;6.056;2022-09-01T01:04:46;8.52;;;2.78;;
60014;SDS011;45867;52.480;6.056;2022-09-01T01:07:12;7.53;;;2.90;;
60014;SDS011;45867;52.480;6.056;2022-09-01T01:09:39;5.18;;;3.03;;
60014;SDS011;45867;52.480;6.056;2022-09-01T01:12:05;6.03;;;2.30;;
60014;SDS011;45867;52.480;6.056;2022-09-01T01:14:33;8.20;;;2.97;;
60014;SDS011;45867;52.480;6.056;2022-09-01T01:16:59;4.22;;;2.65;;
60014;SDS011;45867;52.480;6.056;2022-09-01T01:19:34;6.40;;;2.75;;
60014;SDS011;45867;52.480;6.056;2022-09-01T01:22:26;8.73;;;2.60;;
60014;SDS011;45867;52.480;6.056;2022-09-01T01:25:11;15.45;;;3.58;;
60014;SDS011;45867;52.480;6.056;2022-09-01T01:27:37;9.52;;;2.70;;
60014;SDS011;45867;52.480;6.056;2022-09-01T01:30:06;6.55;;;2.65;;
60014;SDS011;45867;52.480;6.056;2022-09-01T01:32:36;12.32;;;3.03;;
60014;SDS011;45867;52.480;6.056;2022-09-01T01:35:01;6.53;;;3.00;;
60014;SDS011;45867;52.480;6.056;2022-09-01T01:37:30;5.47;;;3.30;;
60014;SDS011;45867;52.480;6.056;2022-09-01T01:39:56;6.43;;;2.90;;
60014;SDS011;45867;52.480;6.056;2022-09-01T01:42:21;5.05;;;2.70;;
60014;SDS011;45867;52.480;6.056;2022-09-01T01:44:48;5.68;;;2.72;;
60014;SDS011;45867;52.480;6.056;2022-09-01T01:47:13;7.28;;;2.65;;
60014;SDS011;45867;52.480;6.056;2022-09-01T01:49:41;8.50;;;3.53;;
60014;SDS011;45867;52.480;6.056;2022-09-01T01:52:08;6.53;;;2.90;;
60014;SDS011;45867;52.480;6.056;2022-09-01T01:54:33;11.88;;;3.08;;
60014;SDS011;45867;52.480;6.056;2022-09-01T01:56:59;4.90;;;2.63;;
60014;SDS011;45867;52.480;6.056;2022-09-01T01:59:25;13.02;;;3.22;;
60014;SDS011;45867;52.480;6.056;2022-09-01T02:01:50;6.50;;;2.97;;
60014;SDS011;45867;52.480;6.056;2022-09-01T02:04:17;7.85;;;2.85;;
60014;SDS011;45867;52.480;6.056;2022-09-01T02:06:43;7.65;;;3.00;;
60014;SDS011;45867;52.480;6.056;2022-09-01T02:09:10;5.10;;;2.92;;
60014;SDS011;45867;52.480;6.056;2022-09-01T02:11:36;5.88;;;2.85;;
60014;SDS011;45867;52.480;6.056;2022-09-01T02:14:02;5.63;;;3.10;;
60014;SDS011;45867;52.480;6.056;2022-09-01T02:16:30;9.68;;;3.25;;
60014;SDS011;45867;52.480;6.056;2022-09-01T02:18:57;12.20;;;3.55;;
60014;SDS011;45867;52.480;6.056;2022-09-01T02:21:23;5.10;;;2.95;;
60014;SDS011;45867;52.480;6.056;2022-09-01T02:23:49;5.18;;;3.00;;
60014;SDS011;45867;52.480;6.056;2022-09-01T02:26:25;7.50;;;3.50;;
60014;SDS011;45867;52.480;6.056;2022-09-01T02:28:55;9.68;;;3.58;;
60014;SDS011;45867;52.480;6.056;2022-09-01T02:31:21;9.02;;;3.03;;
60014;SDS011;45867;52.480;6.056;2022-09-01T02:33:47;7.03;;;3.17;;
60014;SDS011;45867;52.480;6.056;2022-09-01T02:36:14;7.57;;;3.50;;
60014;SDS011;45867;52.480;6.056;2022-09-01T02:38:40;4.35;;;3.13;;
60014;SDS011;45867;52.480;6.056;2022-09-01T02:41:10;4.28;;;2.97;;
60014;SDS011;45867;52.480;6.056;2022-09-01T02:43:37;8.38;;;3.55;;
60014;SDS011;45867;52.480;6.056;2022-09-01T02:46:04;4.60;;;3.10;;
60014;SDS011;45867;52.480;6.056;2022-09-01T02:48:32;12.35;;;3.40;;
60014;SDS011;45867;52.480;6.056;2022-09-01T02:51:00;6.38;;;3.33;;
60014;SDS011;45867;52.480;6.056;2022-09-01T02:53:26;6.03;;;3.35;;
60014;SDS011;45867;52.480;6.056;2022-09-01T02:55:51;5.15;;;3.20;;
60014;SDS011;45867;52.480;6.056;2022-09-01T02:58:17;5.97;;;3.33;;
60014;SDS011;45867;52.480;6.056;2022-09-01T03:00:44;8.68;;;3.35;;
60014;SDS011;45867;52.480;6.056;2022-09-01T03:03:10;6.95;;;3.45;;
60014;SDS011;45867;52.480;6.056;2022-09-01T03:05:43;7.07;;;3.60;;
60014;SDS011;45867;52.480;6.056;2022-09-01T03:08:11;5.53;;;3.30;;
60014;SDS011;45867;52.480;6.056;2022-09-01T03:10:40;6.70;;;3.65;;
60014;SDS011;45867;52.480;6.056;2022-09-01T03:13:08;6.30;;;3.60;;
60014;SDS011;45867;52.480;6.056;2022-09-01T03:15:33;4.50;;;3.25;;
60014;SDS011;45867;52.480;6.056;2022-09-01T03:18:00;10.63;;;3.15;;
60014;SDS011;45867;52.480;6.056;2022-09-01T03:20:28;4.15;;;3.22;;
60014;SDS011;45867;52.480;6.056;2022-09-01T03:22:55;8.48;;;3.38;;
60014;SDS011;45867;52.480;6.056;2022-09-01T03:25:22;5.60;;;3.50;;
60014;SDS011;45867;52.480;6.056;2022-09-01T03:27:49;5.97;;;3.50;;
60014;SDS011;45867;52.480;6.056;2022-09-01T03:30:15;6.32;;;3.53;;
60014;SDS011;45867;52.480;6.056;2022-09-01T03:32:41;12.43;;;3.80;;
60014;SDS011;45867;52.480;6.056;2022-09-01T03:35:09;11.55;;;4.03;;
60014;SDS011;45867;52.480;6.056;2022-09-01T03:37:35;4.82;;;3.58;;
60014;SDS011;45867;52.480;6.056;2022-09-01T03:40:02;6.68;;;3.58;;
60014;SDS011;45867;52.480;6.056;2022-09-01T03:42:28;6.10;;;3.50;;
60014;SDS011;45867;52.480;6.056;2022-09-01T03:44:55;5.65;;;3.67;;
60014;SDS011;45867;52.480;6.056;2022-09-01T03:47:21;9.27;;;3.88;;
60014;SDS011;45867;52.480;6.056;2022-09-01T03:49:47;4.47;;;3.40;;
60014;SDS011;45867;52.480;6.056;2022-09-01T03:52:13;8.45;;;3.67;;
60014;SDS011;45867;52.480;6.056;2022-09-01T03:54:40;8.15;;;3.67;;
60014;SDS011;45867;52.480;6.056;2022-09-01T03:57:05;8.25;;;4.00;;
60014;SDS011;45867;52.480;6.056;2022-09-01T03:59:34;5.32;;;3.67;;
60014;SDS011;45867;52.480;6.056;2022-09-01T04:02:00;6.97;;;3.72;;
60014;SDS011;45867;52.480;6.056;2022-09-01T04:04:27;4.93;;;3.60;;
60014;SDS011;45867;52.480;6.056;2022-09-01T04:06:55;7.38;;;4.30;;
60014;SDS011;45867;52.480;6.056;2022-09-01T04:09:21;7.25;;;4.07;;
60014;SDS011;45867;52.480;6.056;2022-09-01T04:11:46;11.40;;;3.85;;
60014;SDS011;45867;52.480;6.056;2022-09-01T04:14:12;8.10;;;3.65;;
60014;SDS011;45867;52.480;6.056;2022-09-01T04:16:38;5.57;;;3.92;;
60014;SDS011;45867;52.480;6.056;2022-09-01T04:19:24;7.95;;;3.60;;
60014;SDS011;45867;52.480;6.056;2022-09-01T04:21:54;7.32;;;3.75;;
60014;SDS011;45867;52.480;6.056;2022-09-01T04:24:20;6.57;;;3.75;;
60014;SDS011;45867;52.480;6.056;2022-09-01T04:26:48;14.02;;;4.10;;
60014;SDS011;45867;52.480;6.056;2022-09-01T04:29:14;7.00;;;4.18;;
60014;SDS011;45867;52.480;6.056;2022-09-01T04:31:42;5.43;;;3.88;;
60014;SDS011;45867;52.480;6.056;2022-09-01T04:34:09;10.90;;;3.90;;
60014;SDS011;45867;52.480;6.056;2022-09-01T04:36:38;8.18;;;3.78;;
60014;SDS011;45867;52.480;6.056;2022-09-01T04:39:04;9.07;;;4.53;;
60014;SDS011;45867;52.480;6.056;2022-09-01T04:41:33;6.65;;;3.95;;
60014;SDS011;45867;52.480;6.056;2022-09-01T04:44:00;11.63;;;4.07;;
60014;SDS011;45867;52.480;6.056;2022-09-01T04:46:29;6.03;;;3.92;;
60014;SDS011;45867;52.480;6.056;2022-09-01T04:48:55;9.23;;;4.07;;
60014;SDS011;45867;52.480;6.056;2022-09-01T04:51:22;5.80;;;3.70;;
60014;SDS011;45867;52.480;6.056;2022-09-01T04:53:52;9.13;;;4.30;;
60014;SDS011;45867;52.480;6.056;2022-09-01T04:56:19;6.78;;;4.20;;
60014;SDS011;45867;52.480;6.056;2022-09-01T04:58:47;6.85;;;4.00;;
60014;SDS011;45867;52.480;6.056;2022-09-01T05:01:14;9.70;;;4.65;;
60014;SDS011;45867;52.480;6.056;2022-09-01T05:03:42;28.75;;;4.15;;
60014;SDS011;45867;52.480;6.056;2022-09-01T05:06:19;12.25;;;3.80;;
60014;SDS011;45867;52.480;6.056;2022-09-01T05:08:47;5.68;;;3.92;;
60014;SDS011;45867;52.480;6.056;2022-09-01T05:11:14;8.00;;;4.00;;
60014;SDS011;45867;52.480;6.056;2022-09-01T05:13:42;6.07;;;4.40;;
60014;SDS011;45867;52.480;6.056;2022-09-01T05:16:09;7.38;;;3.85;;
60014;SDS011;45867;52.480;6.056;2022-09-01T05:18:39;8.45;;;4.00;;
60014;SDS011;45867;52.480;6.056;2022-09-01T05:21:08;6.72;;;4.10;;
60014;SDS011;45867;52.480;6.056;2022-09-01T05:23:35;7.43;;;4.15;;
60014;SDS011;45867;52.480;6.056;2022-09-01T05:26:01;6.97;;;3.85;;
60014;SDS011;45867;52.480;6.056;2022-09-01T05:28:39;7.40;;;3.92;;
60014;SDS011;45867;52.480;6.056;2022-09-01T05:31:05;9.30;;;4.43;;
60014;SDS011;45867;52.480;6.056;2022-09-01T05:33:31;9.50;;;4.30;;
60014;SDS011;45867;52.480;6.056;2022-09-01T05:36:00;6.50;;;4.03;;
60014;SDS011;45867;52.480;6.056;2022-09-01T05:38:26;9.18;;;4.13;;
60014;SDS011;45867;52.480;6.056;2022-09-01T05:46:00;7.18;;;4.13;;
60014;SDS011;45867;52.480;6.056;2022-09-01T05:48:28;6.20;;;4.10;;
60014;SDS011;45867;52.480;6.056;2022-09-01T05:50:56;6.53;;;4.15;;
60014;SDS011;45867;52.480;6.056;2022-09-01T05:53:24;7.60;;;4.20;;
60014;SDS011;45867;52.480;6.056;2022-09-01T05:55:50;7.53;;;4.28;;
60014;SDS011;45867;52.480;6.056;2022-09-01T05:58:28;7.22;;;4.10;;
60014;SDS011;45867;52.480;6.056;2022-09-01T06:00:54;9.13;;;4.22;;
60014;SDS011;45867;52.480;6.056;2022-09-01T06:03:23;12.27;;;4.47;;
60014;SDS011;45867;52.480;6.056;2022-09-01T06:05:48;8.23;;;4.10;;
60014;SDS011;45867;52.480;6.056;2022-09-01T06:08:17;9.23;;;3.88;;
60014;SDS011;45867;52.480;6.056;2022-09-01T06:10:43;10.52;;;3.80;;
60014;SDS011;45867;52.480;6.056;2022-09-01T06:13:09;10.70;;;3.83;;
60014;SDS011;45867;52.480;6.056;2022-09-01T06:15:35;4.63;;;3.90;;
60014;SDS011;45867;52.480;6.056;2022-09-01T06:18:06;6.15;;;3.70;;
60014;SDS011;45867;52.480;6.056;2022-09-01T06:20:33;5.72;;;4.05;;
60014;SDS011;45867;52.480;6.056;2022-09-01T06:22:59;5.68;;;3.80;;
60014;SDS011;45867;52.480;6.056;2022-09-01T06:25:24;10.43;;;4.00;;
60014;SDS011;45867;52.480;6.056;2022-09-01T06:27:54;9.07;;;4.00;;
60014;SDS011;45867;52.480;6.056;2022-09-01T06:30:20;11.32;;;4.30;;
60014;SDS011;45867;52.480;6.056;2022-09-01T06:32:49;6.72;;;3.92;;
60014;SDS011;45867;52.480;6.056;2022-09-01T06:35:15;15.75;;;3.42;;
60014;SDS011;45867;52.480;6.056;2022-09-01T06:37:42;4.10;;;3.30;;
60014;SDS011;45867;52.480;6.056;2022-09-01T06:40:08;4.88;;;3.10;;
60014;SDS011;45867;52.480;6.056;2022-09-01T06:42:34;7.38;;;3.03;;
60014;SDS011;45867;52.480;6.056;2022-09-01T06:45:00;6.32;;;3.17;;
60014;SDS011;45867;52.480;6.056;2022-09-01T06:47:26;7.28;;;2.80;;
60014;SDS011;45867;52.480;6.056;2022-09-01T06:49:53;4.50;;;2.60;;
60014;SDS011;45867;52.480;6.056;2022-09-01T06:52:23;6.60;;;2.90;;
60014;SDS011;45867;52.480;6.056;2022-09-01T06:54:49;6.60;;;2.42;;
60014;SDS011;45867;52.480;6.056;2022-09-01T06:57:17;5.97;;;2.75;;
60014;SDS011;45867;52.480;6.056;2022-09-01T06:59:42;6.53;;;2.40;;
60014;SDS011;45867;52.480;6.056;2022-09-01T07:02:07;7.60;;;2.50;;
60014;SDS011;45867;52.480;6.056;2022-09-01T07:04:33;8.60;;;2.72;;
60014;SDS011;45867;52.480;6.056;2022-09-01T07:06:59;8.93;;;2.58;;
60014;SDS011;45867;52.480;6.056;2022-09-01T07:09:24;9.50;;;2.88;;
60014;SDS011;45867;52.480;6.056;2022-09-01T07:11:49;6.10;;;2.72;;
60014;SDS011;45867;52.480;6.056;2022-09-01T07:14:15;10.73;;;2.60;;
60014;SDS011;45867;52.480;6.056;2022-09-01T07:16:41;10.02;;;2.72;;
60014;SDS011;45867;52.480;6.056;2022-09-01T07:19:09;13.27;;;2.72;;
60014;SDS011;45867;52.480;6.056;2022-09-01T07:21:37;3.15;;;2.28;;
60014;SDS011;45867;52.480;6.056;2022-09-01T07:24:02;6.13;;;2.60;;
60014;SDS011;45867;52.480;6.056;2022-09-01T07:26:29;6.75;;;2.38;;
60014;SDS011;45867;52.480;6.056;2022-09-01T07:28:55;7.03;;;2.42;;
60014;SDS011;45867;52.480;6.056;2022-09-01T07:31:22;7.05;;;2.17;;
60014;SDS011;45867;52.480;6.056;2022-09-01T07:33:52;6.45;;;2.28;;
60014;SDS011;45867;52.480;6.056;2022-09-01T07:36:19;3.45;;;2.10;;
60014;SDS011;45867;52.480;6.056;2022-09-01T07:38:44;5.40;;;2.25;;
60014;SDS011;45867;52.480;6.056;2022-09-01T07:41:10;4.28;;;2.10;;
60014;SDS011;45867;52.480;6.056;2022-09-01T07:43:40;4.35;;;2.20;;
60014;SDS011;45867;52.480;6.056;2022-09-01T07:46:08;7.30;;;2.20;;
60014;SDS011;45867;52.480;6.056;2022-09-01T07:48:34;3.33;;;1.95;;
60014;SDS011;45867;52.480;6.056;2022-09-01T07:50:59;7.43;;;2.00;;
60014;SDS011;45867;52.480;6.056;2022-09-01T07:53:26;8.63;;;1.90;;
60014;SDS011;45867;52.480;6.056;2022-09-01T07:55:54;4.88;;;1.90;;
60014;SDS011;45867;52.480;6.056;2022-09-01T07:58:21;8.93;;;1.65;;
60014;SDS011;45867;52.480;6.056;2022-09-01T08:00:47;5.40;;;2.10;;
60014;SDS011;45867;52.480;6.056;2022-09-01T08:03:14;5.88;;;2.38;;
60014;SDS011;45867;52.480;6.056;2022-09-01T08:05:40;7.53;;;2.20;;
60014;SDS011;45867;52.480;6.056;2022-09-01T08:08:05;7.22;;;1.75;;
60014;SDS011;45867;52.480;6.056;2022-09-01T08:10:30;10.95;;;2.10;;
60014;SDS011;45867;52.480;6.056;2022-09-01T08:12:56;6.57;;;1.80;;
60014;SDS011;45867;52.480;6.056;2022-09-01T08:15:31;3.03;;;1.80;;
60014;SDS011;45867;52.480;6.056;2022-09-01T08:17:56;11.77;;;1.80;;
60014;SDS011;45867;52.480;6.056;2022-09-01T08:20:21;6.53;;;1.60;;
60014;SDS011;45867;52.480;6.056;2022-09-01T08:22:48;2.85;;;1.77;;
60014;SDS011;45867;52.480;6.056;2022-09-01T08:25:13;4.55;;;1.80;;
60014;SDS011;45867;52.480;6.056;2022-09-01T08:27:39;4.88;;;1.65;;
60014;SDS011;45867;52.480;6.056;2022-09-01T08:30:05;4.18;;;1.90;;
60014;SDS011;45867;52.480;6.056;2022-09-01T08:32:31;7.40;;;1.73;;
60014;SDS011;45867;52.480;6.056;2022-09-01T08:34:57;4.03;;;1.60;;
60014;SDS011;45867;52.480;6.056;2022-09-01T08:37:22;7.63;;;2.05;;
60014;SDS011;45867;52.480;6.056;2022-09-01T08:39:49;8.10;;;1.63;;
60014;SDS011;45867;52.480;6.056;2022-09-01T08:42:22;7.85;;;1.50;;
60014;SDS011;45867;52.480;6.056;2022-09-01T08:44:57;7.15;;;1.85;;
60014;SDS011;45867;52.480;6.056;2022-09-01T08:47:26;10.18;;;1.30;;
60014;SDS011;45867;52.480;6.056;2022-09-01T08:49:52;1.98;;;1.20;;
60014;SDS011;45867;52.480;6.056;2022-09-01T08:54:44;4.80;;;1.27;;
60014;SDS011;45867;52.480;6.056;2022-09-01T08:57:13;5.07;;;1.25;;
60014;SDS011;45867;52.480;6.056;2022-09-01T08:59:43;13.57;;;1.60;;
60014;SDS011;45867;52.480;6.056;2022-09-01T09:02:20;13.70;;;1.83;;
60014;SDS011;45867;52.480;6.056;2022-09-01T09:04:57;10.38;;;1.60;;
60014;SDS011;45867;52.480;6.056;2022-09-01T09:07:41;5.95;;;1.33;;
60014;SDS011;45867;52.480;6.056;2022-09-01T09:10:13;4.00;;;1.20;;
60014;SDS011;45867;52.480;6.056;2022-09-01T09:12:56;1.20;;;1.10;;
60014;SDS011;45867;52.480;6.056;2022-09-01T09:15:32;2.63;;;1.25;;
60014;SDS011;45867;52.480;6.056;2022-09-01T09:18:45;1.52;;;0.85;;
60014;SDS011;45867;52.480;6.056;2022-09-01T09:20:49;2.53;;;1.00;;
60014;SDS011;45867;52.480;6.056;2022-09-01T09:23:35;5.32;;;1.42;;
60014;SDS011;45867;52.480;6.056;2022-09-01T09:26:15;16.13;;;1.80;;
60014;SDS011;45867;52.480;6.056;2022-09-01T09:28:48;3.17;;;1.08;;
60014;SDS011;45867;52.480;6.056;2022-09-01T09:31:25;6.07;;;1.20;;
60014;SDS011;45867;52.480;6.056;2022-09-01T09:33:54;3.37;;;1.20;;
60014;SDS011;45867;52.480;6.056;2022-09-01T09:36:21;3.88;;;1.10;;
60014;SDS011;45867;52.480;6.056;2022-09-01T09:38:46;2.22;;;1.20;;
60014;SDS011;45867;52.480;6.056;2022-09-01T09:41:29;2.53;;;1.20;;
60014;SDS011;45867;52.480;6.056;2022-09-01T09:43:56;10.35;;;1.10;;
60014;SDS011;45867;52.480;6.056;2022-09-01T09:46:27;2.47;;;0.98;;
60014;SDS011;45867;52.480;6.056;2022-09-01T09:51:46;4.43;;;1.40;;
60014;SDS011;45867;52.480;6.056;2022-09-01T09:54:14;2.17;;;1.10;;
60014;SDS011;45867;52.480;6.056;2022-09-01T09:56:41;3.47;;;0.93;;
60014;SDS011;45867;52.480;6.056;2022-09-01T09:59:27;3.00;;;1.20;;
60014;SDS011;45867;52.480;6.056;2022-09-01T10:02:12;2.63;;;1.20;;
60014;SDS011;45867;52.480;6.056;2022-09-01T10:04:41;7.72;;;1.10;;
60014;SDS011;45867;52.480;6.056;2022-09-01T10:09:52;3.38;;;1.40;;
60014;SDS011;45867;52.480;6.056;2022-09-01T10:12:20;5.38;;;1.23;;
60014;SDS011;45867;52.480;6.056;2022-09-01T10:15:07;6.50;;;1.52;;
60014;SDS011;45867;52.480;6.056;2022-09-01T10:17:33;5.35;;;1.38;;
60014;SDS011;45867;52.480;6.056;2022-09-01T10:20:04;6.53;;;1.25;;
60014;SDS011;45867;52.480;6.056;2022-09-01T10:22:35;6.43;;;1.45;;
60014;SDS011;45867;52.480;6.056;2022-09-01T10:25:01;12.30;;;1.50;;
60014;SDS011;45867;52.480;6.056;2022-09-01T10:27:28;3.75;;;0.90;;
60014;SDS011;45867;52.480;6.056;2022-09-01T10:30:10;7.95;;;1.20;;
60014;SDS011;45867;52.480;6.056;2022-09-01T10:32:42;4.35;;;1.10;;
60014;SDS011;45867;52.480;6.056;2022-09-01T10:35:10;9.23;;;1.20;;
60014;SDS011;45867;52.480;6.056;2022-09-01T10:37:36;3.88;;;1.42;;
60014;SDS011;45867;52.480;6.056;2022-09-01T10:40:10;4.53;;;0.98;;
60014;SDS011;45867;52.480;6.056;2022-09-01T10:42:35;2.33;;;1.40;;
60014;SDS011;45867;52.480;6.056;2022-09-01T10:45:01;2.30;;;1.27;;
60014;SDS011;45867;52.480;6.056;2022-09-01T10:47:28;1.75;;;1.10;;
60014;SDS011;45867;52.480;6.056;2022-09-01T10:52:54;2.25;;;1.30;;
60014;SDS011;45867;52.480;6.056;2022-09-01T10:55:25;3.30;;;1.38;;
60014;SDS011;45867;52.480;6.056;2022-09-01T10:57:59;5.47;;;1.02;;
60014;SDS011;45867;52.480;6.056;2022-09-01T11:03:53;7.45;;;1.35;;
60014;SDS011;45867;52.480;6.056;2022-09-01T11:11:14;3.45;;;1.23;;
60014;SDS011;45867;52.480;6.056;2022-09-01T11:13:50;9.07;;;1.30;;
60014;SDS011;45867;52.480;6.056;2022-09-01T11:16:25;2.70;;;1.20;;
60014;SDS011;45867;52.480;6.056;2022-09-01T11:18:51;4.90;;;1.20;;
60014;SDS011;45867;52.480;6.056;2022-09-01T11:21:27;4.55;;;1.20;;
60014;SDS011;45867;52.480;6.056;2022-09-01T11:26:48;1.73;;;1.20;;
60014;SDS011;45867;52.480;6.056;2022-09-01T11:32:00;2.90;;;1.27;;
60014;SDS011;45867;52.480;6.056;2022-09-01T11:34:26;3.30;;;1.00;;
60014;SDS011;45867;52.480;6.056;2022-09-01T11:37:02;1.90;;;1.10;;
60014;SDS011;45867;52.480;6.056;2022-09-01T11:39:40;2.25;;;1.27;;
60014;SDS011;45867;52.480;6.056;2022-09-01T11:42:10;5.88;;;1.10;;
60014;SDS011;45867;52.480;6.056;2022-09-01T11:47:20;2.83;;;1.27;;
60014;SDS011;45867;52.480;6.056;2022-09-01T11:49:51;2.67;;;1.23;;
60014;SDS011;45867;52.480;6.056;2022-09-01T11:52:17;4.10;;;1.23;;
60014;SDS011;45867;52.480;6.056;2022-09-01T11:54:43;7.68;;;1.33;;
60014;SDS011;45867;52.480;6.056;2022-09-01T11:57:27;2.42;;;0.93;;
60014;SDS011;45867;52.480;6.056;2022-09-01T11:59:53;6.70;;;1.33;;
60014;SDS011;45867;52.480;6.056;2022-09-01T12:02:23;5.85;;;1.20;;
60014;SDS011;45867;52.480;6.056;2022-09-01T12:04:50;8.82;;;1.30;;
60014;SDS011;45867;52.480;6.056;2022-09-01T12:07:26;3.95;;;1.10;;
60014;SDS011;45867;52.480;6.056;2022-09-01T12:09:54;3.15;;;1.27;;
60014;SDS011;45867;52.480;6.056;2022-09-01T12:14:58;8.45;;;1.50;;
60014;SDS011;45867;52.480;6.056;2022-09-01T12:17:24;12.38;;;1.60;;
60014;SDS011;45867;52.480;6.056;2022-09-01T12:19:50;7.45;;;1.38;;
60014;SDS011;45867;52.480;6.056;2022-09-01T12:22:16;2.25;;;1.00;;
60014;SDS011;45867;52.480;6.056;2022-09-01T12:24:48;17.52;;;1.75;;
60014;SDS011;45867;52.480;6.056;2022-09-01T12:27:13;10.25;;;1.48;;
60014;SDS011;45867;52.480;6.056;2022-09-01T12:29:49;5.68;;;1.15;;
60014;SDS011;45867;52.480;6.056;2022-09-01T12:32:17;5.97;;;1.25;;
60014;SDS011;45867;52.480;6.056;2022-09-01T12:34:46;3.42;;;1.33;;
60014;SDS011;45867;52.480;6.056;2022-09-01T12:37:23;3.75;;;1.33;;
60014;SDS011;45867;52.480;6.056;2022-09-01T12:39:51;4.10;;;1.38;;
60014;SDS011;45867;52.480;6.056;2022-09-01T12:52:43;9.98;;;1.50;;
60014;SDS011;45867;52.480;6.056;2022-09-01T12:55:22;2.92;;;1.40;;
60014;SDS011;45867;52.480;6.056;2022-09-01T12:57:52;2.65;;;1.30;;
60014;SDS011;45867;52.480;6.056;2022-09-01T13:00:20;4.15;;;1.30;;
60014;SDS011;45867;52.480;6.056;2022-09-01T13:05:21;6.80;;;1.40;;
60014;SDS011;45867;52.480;6.056;2022-09-01T13:07:47;4.18;;;1.20;;
60014;SDS011;45867;52.480;6.056;2022-09-01T13:10:13;1.90;;;1.15;;
60014;SDS011;45867;52.480;6.056;2022-09-01T13:12:42;3.60;;;1.25;;
60014;SDS011;45867;52.480;6.056;2022-09-01T13:15:08;3.25;;;1.55;;
60014;SDS011;45867;52.480;6.056;2022-09-01T13:17:33;1.80;;;1.00;;
60014;SDS011;45867;52.480;6.056;2022-09-01T13:19:59;2.42;;;1.08;;
60014;SDS011;45867;52.480;6.056;2022-09-01T13:22:24;7.32;;;1.33;;
60014;SDS011;45867;52.480;6.056;2022-09-01T13:24:49;3.35;;;1.10;;
60014;SDS011;45867;52.480;6.056;2022-09-01T13:27:15;2.60;;;0.90;;
60014;SDS011;45867;52.480;6.056;2022-09-01T13:29:43;3.83;;;1.00;;
60014;SDS011;45867;52.480;6.056;2022-09-01T13:32:13;1.92;;;1.00;;
60014;SDS011;45867;52.480;6.056;2022-09-01T13:34:38;2.58;;;1.23;;
60014;SDS011;45867;52.480;6.056;2022-09-01T13:37:04;2.25;;;1.40;;
60014;SDS011;45867;52.480;6.056;2022-09-01T13:39:33;4.00;;;1.17;;
60014;SDS011;45867;52.480;6.056;2022-09-01T13:41:58;4.32;;;0.85;;
60014;SDS011;45867;52.480;6.056;2022-09-01T13:44:24;3.35;;;1.13;;
60014;SDS011;45867;52.480;6.056;2022-09-01T13:46:49;6.20;;;1.20;;
60014;SDS011;45867;52.480;6.056;2022-09-01T13:49:18;2.45;;;1.17;;
60014;SDS011;45867;52.480;6.056;2022-09-01T13:51:48;1.75;;;1.10;;
60014;SDS011;45867;52.480;6.056;2022-09-01T13:54:14;5.13;;;1.33;;
60014;SDS011;45867;52.480;6.056;2022-09-01T13:56:42;6.20;;;1.30;;
60014;SDS011;45867;52.480;6.056;2022-09-01T13:59:08;1.45;;;1.13;;
60014;SDS011;45867;52.480;6.056;2022-09-01T14:01:33;3.50;;;1.25;;
60014;SDS011;45867;52.480;6.056;2022-09-01T14:03:58;3.67;;;1.13;;
60014;SDS011;45867;52.480;6.056;2022-09-01T14:06:24;4.20;;;1.40;;
60014;SDS011;45867;52.480;6.056;2022-09-01T14:08:49;3.10;;;1.10;;
60014;SDS011;45867;52.480;6.056;2022-09-01T14:11:18;2.85;;;1.20;;
60014;SDS011;45867;52.480;6.056;2022-09-01T14:13:44;8.75;;;1.42;;
60014;SDS011;45867;52.480;6.056;2022-09-01T14:16:12;3.33;;;1.25;;
60014;SDS011;45867;52.480;6.056;2022-09-01T14:18:38;4.97;;;1.42;;
60014;SDS011;45867;52.480;6.056;2022-09-01T14:21:04;1.80;;;1.17;;
60014;SDS011;45867;52.480;6.056;2022-09-01T14:23:32;2.97;;;1.42;;
60014;SDS011;45867;52.480;6.056;2022-09-01T14:25:57;3.85;;;1.20;;
60014;SDS011;45867;52.480;6.056;2022-09-01T14:28:23;2.00;;;1.15;;
60014;SDS011;45867;52.480;6.056;2022-09-01T14:33:34;2.47;;;1.20;;
60014;SDS011;45867;52.480;6.056;2022-09-01T14:36:00;2.30;;;1.17;;
60014;SDS011;45867;52.480;6.056;2022-09-01T14:38:33;2.25;;;1.35;;
60014;SDS011;45867;52.480;6.056;2022-09-01T14:41:02;3.17;;;1.10;;
60014;SDS011;45867;52.480;6.056;2022-09-01T14:43:27;4.60;;;1.17;;
60014;SDS011;45867;52.480;6.056;2022-09-01T14:46:07;5.60;;;1.20;;
60014;SDS011;45867;52.480;6.056;2022-09-01T14:48:38;2.08;;;1.08;;
60014;SDS011;45867;52.480;6.056;2022-09-01T14:51:07;1.90;;;1.15;;
60014;SDS011;45867;52.480;6.056;2022-09-01T14:53:36;2.15;;;0.93;;
60014;SDS011;45867;52.480;6.056;2022-09-01T14:56:01;2.70;;;1.10;;
60014;SDS011;45867;52.480;6.056;2022-09-01T14:58:27;2.88;;;1.40;;
60014;SDS011;45867;52.480;6.056;2022-09-01T15:00:56;2.38;;;1.10;;
60014;SDS011;45867;52.480;6.056;2022-09-01T15:03:26;2.35;;;1.10;;
60014;SDS011;45867;52.480;6.056;2022-09-01T15:05:52;6.10;;;1.30;;
60014;SDS011;45867;52.480;6.056;2022-09-01T15:08:21;1.63;;;1.10;;
60014;SDS011;45867;52.480;6.056;2022-09-01T15:10:47;4.47;;;1.40;;
60014;SDS011;45867;52.480;6.056;2022-09-01T15:13:15;2.70;;;1.10;;
60014;SDS011;45867;52.480;6.056;2022-09-01T15:15:41;3.92;;;1.38;;
60014;SDS011;45867;52.480;6.056;2022-09-01T15:18:06;2.17;;;1.27;;
60014;SDS011;45867;52.480;6.056;2022-09-01T15:20:32;5.95;;;1.25;;
60014;SDS011;45867;52.480;6.056;2022-09-01T15:23:10;5.10;;;1.27;;
60014;SDS011;45867;52.480;6.056;2022-09-01T15:25:53;3.13;;;1.40;;
60014;SDS011;45867;52.480;6.056;2022-09-01T15:28:19;3.17;;;1.30;;
60014;SDS011;45867;52.480;6.056;2022-09-01T15:30:49;4.78;;;1.45;;
60014;SDS011;45867;52.480;6.056;2022-09-01T15:33:18;6.25;;;1.30;;
60014;SDS011;45867;52.480;6.056;2022-09-01T15:35:44;5.20;;;1.40;;
60014;SDS011;45867;52.480;6.056;2022-09-01T15:40:57;4.53;;;1.35;;
60014;SDS011;45867;52.480;6.056;2022-09-01T15:43:24;7.60;;;1.20;;
60014;SDS011;45867;52.480;6.056;2022-09-01T15:45:50;6.38;;;1.30;;